<?xml version="1.0" encoding="UTF-8" standalone="no" ?>
<gpx xmlns="http://www.topografix.com/GPX/1/1" xmlns:xsi="http://www.w3.org/2001/XMLSchema-instance" xsi:schemaLocation="http://www.topografix.com/GPX/1/1 http://www.topografix.com/GPX/1/1/gpx.xsd" version="1.1" creator="VisuGPX - https://www.visugpx.com">
  <metadata>
    <name>rando asques 10 km</name>
    <desc><![CDATA[photos dispo ici
http://rando.pedestre.33.over-blog.com/2017/09/rando-asques-11-km.html]]></desc>
  </metadata>
  <trk>
    <name><![CDATA[rando asque 10 km]]></name>
    <trkseg>
      <trkpt lat="44.94961" lon="-0.41203">
        <ele>19</ele>
        <time>2017-09-28T14:47:15Z</time>
      </trkpt>
      <trkpt lat="44.95101" lon="-0.41267">
        <ele>29</ele>
        <time>2017-09-28T14:49:15Z</time>
      </trkpt>
      <trkpt lat="44.95125" lon="-0.4113">
        <ele>29</ele>
        <time>2017-09-28T14:51:15Z</time>
      </trkpt>
      <trkpt lat="44.9518" lon="-0.41138">
        <ele>29</ele>
        <time>2017-09-28T14:53:15Z</time>
      </trkpt>
      <trkpt lat="44.9518" lon="-0.41065">
        <ele>28</ele>
        <time>2017-09-28T14:55:15Z</time>
      </trkpt>
      <trkpt lat="44.95231" lon="-0.41053">
        <ele>27</ele>
        <time>2017-09-28T14:57:15Z</time>
      </trkpt>
      <trkpt lat="44.95231" lon="-0.40962">
        <ele>24</ele>
        <time>2017-09-28T14:59:15Z</time>
      </trkpt>
      <trkpt lat="44.95535" lon="-0.40902">
        <ele>22</ele>
        <time>2017-09-28T15:01:15Z</time>
      </trkpt>
      <trkpt lat="44.95663" lon="-0.40606">
        <ele>4</ele>
        <time>2017-09-28T15:03:15Z</time>
      </trkpt>
      <trkpt lat="44.95556" lon="-0.40563">
        <ele>4</ele>
        <time>2017-09-28T15:05:15Z</time>
      </trkpt>
      <trkpt lat="44.95499" lon="-0.40417">
        <ele>4</ele>
        <time>2017-09-28T15:07:15Z</time>
      </trkpt>
      <trkpt lat="44.95441" lon="-0.40383">
        <ele>3</ele>
        <time>2017-09-28T15:09:15Z</time>
      </trkpt>
      <trkpt lat="44.95526" lon="-0.40229">
        <ele>2</ele>
        <time>2017-09-28T15:11:15Z</time>
      </trkpt>
      <trkpt lat="44.95438" lon="-0.40181">
        <ele>1</ele>
        <time>2017-09-28T15:13:15Z</time>
      </trkpt>
      <trkpt lat="44.95292" lon="-0.39997">
        <ele>2</ele>
        <time>2017-09-28T15:15:15Z</time>
      </trkpt>
      <trkpt lat="44.95292" lon="-0.39791">
        <ele>3</ele>
        <time>2017-09-28T15:17:15Z</time>
      </trkpt>
      <trkpt lat="44.95632" lon="-0.39568">
        <ele>3</ele>
        <time>2017-09-28T15:19:15Z</time>
      </trkpt>
      <trkpt lat="44.95751" lon="-0.39945">
        <ele>3</ele>
        <time>2017-09-28T15:21:15Z</time>
      </trkpt>
      <trkpt lat="44.95678" lon="-0.39984">
        <ele>3</ele>
        <time>2017-09-28T15:23:15Z</time>
      </trkpt>
      <trkpt lat="44.95754" lon="-0.4022">
        <ele>4</ele>
        <time>2017-09-28T15:25:15Z</time>
      </trkpt>
      <trkpt lat="44.95754" lon="-0.40362">
        <ele>3</ele>
        <time>2017-09-28T15:27:15Z</time>
      </trkpt>
      <trkpt lat="44.95815" lon="-0.40576">
        <ele>5</ele>
        <time>2017-09-28T15:29:15Z</time>
      </trkpt>
      <trkpt lat="44.95921" lon="-0.40744">
        <ele>6</ele>
        <time>2017-09-28T15:31:15Z</time>
      </trkpt>
      <trkpt lat="44.95985" lon="-0.40662">
        <ele>6</ele>
        <time>2017-09-28T15:33:15Z</time>
      </trkpt>
      <trkpt lat="44.96146" lon="-0.41057">
        <ele>5</ele>
        <time>2017-09-28T15:35:15Z</time>
      </trkpt>
      <trkpt lat="44.96212" lon="-0.4107">
        <ele>6</ele>
        <time>2017-09-28T15:37:15Z</time>
      </trkpt>
      <trkpt lat="44.96231" lon="-0.41211">
        <ele>5</ele>
        <time>2017-09-28T15:39:15Z</time>
      </trkpt>
      <trkpt lat="44.96306" lon="-0.41246">
        <ele>6</ele>
        <time>2017-09-28T15:41:15Z</time>
      </trkpt>
      <trkpt lat="44.96373" lon="-0.41224">
        <ele>5</ele>
        <time>2017-09-28T15:43:15Z</time>
      </trkpt>
      <trkpt lat="44.96443" lon="-0.41143">
        <ele>4</ele>
        <time>2017-09-28T15:45:15Z</time>
      </trkpt>
      <trkpt lat="44.96577" lon="-0.41907">
        <ele>1</ele>
        <time>2017-09-28T15:47:15Z</time>
      </trkpt>
      <trkpt lat="44.95972" lon="-0.43409">
        <ele>1</ele>
        <time>2017-09-28T15:49:15Z</time>
      </trkpt>
      <trkpt lat="44.95784" lon="-0.43284">
        <ele>1</ele>
        <time>2017-09-28T15:51:15Z</time>
      </trkpt>
      <trkpt lat="44.95578" lon="-0.43215">
        <ele>2</ele>
        <time>2017-09-28T15:53:15Z</time>
      </trkpt>
      <trkpt lat="44.95651" lon="-0.42949">
        <ele>1</ele>
        <time>2017-09-28T15:55:15Z</time>
      </trkpt>
      <trkpt lat="44.95195" lon="-0.42756">
        <ele>2</ele>
        <time>2017-09-28T15:57:15Z</time>
      </trkpt>
      <trkpt lat="44.95265" lon="-0.42357">
        <ele>2</ele>
        <time>2017-09-28T15:59:15Z</time>
      </trkpt>
      <trkpt lat="44.95122" lon="-0.41928">
        <ele>2</ele>
        <time>2017-09-28T16:01:15Z</time>
      </trkpt>
      <trkpt lat="44.94967" lon="-0.42164">
        <ele>2</ele>
        <time>2017-09-28T16:03:15Z</time>
      </trkpt>
      <trkpt lat="44.94843" lon="-0.42095">
        <ele>3</ele>
        <time>2017-09-28T16:05:15Z</time>
      </trkpt>
      <trkpt lat="44.94824" lon="-0.41967">
        <ele>4</ele>
        <time>2017-09-28T16:07:15Z</time>
      </trkpt>
      <trkpt lat="44.94858" lon="-0.41743">
        <ele>4</ele>
        <time>2017-09-28T16:09:15Z</time>
      </trkpt>
      <trkpt lat="44.94946" lon="-0.41525">
        <ele>3</ele>
        <time>2017-09-28T16:11:15Z</time>
      </trkpt>
      <trkpt lat="44.94995" lon="-0.4138">
        <ele>10</ele>
        <time>2017-09-28T16:13:15Z</time>
      </trkpt>
      <trkpt lat="44.94897" lon="-0.41298">
        <ele>7</ele>
        <time>2017-09-28T16:15:15Z</time>
      </trkpt>
      <trkpt lat="44.94906" lon="-0.41186">
        <ele>10</ele>
        <time>2017-09-28T16:17:15Z</time>
      </trkpt>
      <trkpt lat="44.9501" lon="-0.41178">
        <ele>27</ele>
        <time>2017-09-28T16:19:15Z</time>
      </trkpt>
    </trkseg>
  </trk>
</gpx>